createdAt,value
2019-02-26T00:01:05.313Z,13.40
2019-02-26T00:03:35.911Z,11.90
2019-02-26T00:06:06.116Z,13.43
2019-02-26T00:08:36.303Z,12.37
2019-02-26T00:11:08.579Z,12.93
2019-02-26T00:13:38.455Z,13.50
2019-02-26T00:16:10.562Z,14.23
2019-02-26T00:18:42.566Z,13.47
2019-02-26T00:21:12.564Z,12.83
2019-02-26T00:23:44.350Z,12.93
2019-02-26T00:26:15.617Z,12.63
2019-02-26T00:28:46.547Z,12.40
2019-02-26T00:31:16.835Z,13.23
2019-02-26T00:33:47.104Z,11.57
2019-02-26T00:36:17.285Z,13.47
2019-02-26T00:38:47.759Z,13.03
2019-02-26T00:41:20.324Z,12.60
2019-02-26T00:43:53.149Z,15.30
2019-02-26T00:46:24.217Z,13.90
2019-02-26T00:48:56.361Z,13.50
2019-02-26T00:51:26.992Z,14.23
2019-02-26T00:53:58.031Z,14.70
2019-02-26T00:56:29.875Z,13.37
2019-02-26T00:59:01.149Z,12.40
2019-02-26T01:01:31.608Z,12.80
2019-02-26T01:04:01.927Z,13.10
2019-02-26T01:06:33.528Z,12.80
2019-02-26T01:09:06.601Z,12.77
2019-02-26T01:11:36.444Z,15.30
2019-02-26T01:14:06.654Z,14.77
2019-02-26T01:16:37.676Z,11.83
2019-02-26T01:19:10.759Z,12.70
2019-02-26T01:21:40.629Z,13.40
2019-02-26T01:24:10.812Z,14.43
2019-02-26T01:26:43.497Z,13.63
2019-02-26T01:29:16.060Z,12.93
2019-02-26T01:31:44.973Z,16.53
2019-02-26T01:34:15.783Z,14.90
2019-02-26T01:36:49.078Z,14.67
2019-02-26T01:39:21.071Z,17.17
2019-02-26T01:41:53.398Z,14.40
2019-02-26T01:44:23.046Z,14.97
2019-02-26T01:46:55.155Z,12.77
2019-02-26T01:49:26.643Z,13.77
2019-02-26T01:51:57.133Z,13.00
2019-02-26T01:54:28.323Z,12.57
2019-02-26T01:56:59.297Z,13.53
2019-02-26T01:59:31.734Z,12.30
2019-02-26T02:02:01.576Z,12.90
2019-02-26T02:04:32.460Z,11.97
2019-02-26T02:07:05.928Z,12.43
2019-02-26T02:09:35.659Z,13.13
2019-02-26T02:12:07.092Z,12.47
2019-02-26T02:14:37.937Z,14.33
2019-02-26T02:17:08.514Z,13.90
2019-02-26T02:19:40.028Z,13.43
2019-02-26T02:22:12.050Z,14.23
2019-02-26T02:24:44.466Z,13.00
2019-02-26T02:27:17.450Z,14.80
2019-02-26T02:29:46.185Z,15.10
2019-02-26T02:32:17.776Z,13.30
2019-02-26T02:34:48.033Z,12.87
2019-02-26T02:37:23.744Z,11.53
2019-02-26T02:39:50.225Z,12.83
2019-02-26T02:42:22.011Z,13.00
2019-02-26T02:44:52.777Z,12.43
2019-02-26T02:47:25.254Z,12.10
2019-02-26T02:49:56.927Z,10.87
2019-02-26T02:52:29.674Z,12.20
2019-02-26T02:54:59.224Z,11.63
2019-02-26T02:57:31.982Z,38.83
2019-02-26T03:00:02.985Z,29.07
2019-02-26T03:02:37.452Z,12.83
2019-02-26T03:05:06.018Z,12.20
2019-02-26T03:07:36.269Z,12.53
2019-02-26T03:10:09.529Z,12.57
2019-02-26T03:12:38.948Z,20.60
2019-02-26T03:15:10.589Z,14.90
2019-02-26T03:17:40.818Z,14.10
2019-02-26T03:20:11.845Z,11.53
2019-02-26T03:22:45.583Z,13.13
2019-02-26T03:25:16.525Z,11.77
2019-02-26T03:27:46.394Z,12.47
2019-02-26T03:30:26.290Z,12.23
2019-02-26T03:32:52.197Z,11.87
2019-02-26T03:35:23.282Z,13.37
2019-02-26T03:37:55.531Z,12.27
2019-02-26T03:40:27.046Z,12.70
2019-02-26T03:42:57.688Z,12.03
2019-02-26T03:45:27.992Z,11.93
2019-02-26T03:47:58.725Z,12.40
2019-02-26T03:50:28.857Z,12.13
2019-02-26T03:52:59.042Z,12.03
2019-02-26T03:55:31.731Z,12.60
2019-02-26T03:58:02.183Z,13.93
2019-02-26T04:00:34.733Z,16.50
2019-02-26T04:03:09.300Z,16.53
2019-02-26T04:05:38.401Z,15.80
2019-02-26T04:08:08.733Z,14.00
2019-02-26T04:10:38.930Z,13.37
2019-02-26T04:13:09.169Z,13.30
2019-02-26T04:15:39.385Z,15.57
2019-02-26T04:18:09.591Z,21.43
2019-02-26T04:20:43.380Z,17.43
2019-02-26T04:23:14.188Z,13.20
2019-02-26T04:26:04.888Z,14.30
2019-02-26T04:29:09.126Z,14.07
2019-02-26T04:32:38.361Z,13.33
2019-02-26T04:35:24.012Z,12.40
2019-02-26T04:38:23.378Z,13.07
2019-02-26T04:41:06.856Z,12.37
2019-02-26T04:44:28.822Z,12.00
2019-02-26T04:47:18.465Z,11.30
2019-02-26T04:49:49.282Z,12.03
2019-02-26T04:52:19.494Z,12.50
2019-02-26T04:54:49.679Z,12.87
2019-02-26T04:57:19.894Z,13.33
2019-02-26T04:59:50.073Z,12.10
2019-02-26T05:02:20.327Z,13.83
2019-02-26T05:04:50.838Z,13.97
2019-02-26T05:07:21.090Z,12.30
2019-02-26T05:09:53.828Z,12.27
2019-02-26T05:12:25.263Z,12.97
2019-02-26T05:14:55.111Z,13.07
2019-02-26T05:17:29.636Z,12.23
2019-02-26T05:20:00.413Z,12.83
2019-02-26T05:22:33.377Z,13.90
2019-02-26T05:25:04.802Z,12.50
2019-02-26T05:27:36.455Z,13.93
2019-02-26T05:30:09.909Z,12.77
2019-02-26T05:32:40.027Z,13.67
2019-02-26T05:35:11.621Z,14.27
2019-02-26T05:37:42.248Z,14.73
2019-02-26T05:40:15.403Z,13.40
2019-02-26T05:42:44.571Z,13.80
2019-02-26T05:45:14.787Z,13.33
2019-02-26T05:47:47.594Z,12.73
2019-02-26T05:50:17.013Z,12.53
2019-02-26T05:52:49.755Z,13.80
2019-02-26T05:55:20.575Z,11.90
2019-02-26T05:57:51.420Z,13.13
2019-02-26T06:00:26.243Z,14.23
2019-02-26T06:02:55.257Z,13.40
2019-02-26T06:05:26.225Z,13.57
2019-02-26T06:07:57.588Z,14.03
2019-02-26T06:10:31.985Z,13.47
2019-02-26T06:13:02.209Z,13.80
2019-02-26T06:15:34.147Z,12.50
2019-02-26T06:18:06.170Z,12.93
2019-02-26T06:20:36.752Z,13.60
2019-02-26T06:23:07.256Z,13.83
2019-02-26T06:25:37.725Z,14.83
2019-02-26T06:28:12.123Z,13.90
2019-02-26T06:30:40.103Z,13.50
2019-02-26T06:33:12.164Z,13.80
2019-02-26T06:35:42.866Z,13.83
2019-02-26T06:38:13.165Z,13.90
2019-02-26T06:40:47.067Z,14.40
2019-02-26T06:43:15.323Z,12.60
2019-02-26T06:45:47.777Z,13.20
2019-02-26T06:48:20.816Z,13.70
2019-02-26T06:50:50.180Z,13.80
2019-02-26T06:53:21.665Z,13.40
2019-02-26T06:55:52.055Z,14.77
2019-02-26T06:58:24.289Z,13.63
2019-02-26T07:00:55.550Z,13.73
2019-02-26T07:03:25.983Z,14.33
2019-02-26T07:06:01.654Z,14.70
2019-02-26T07:08:30.969Z,14.57
2019-02-26T07:11:03.878Z,12.97
2019-02-26T07:13:36.194Z,14.63
2019-02-26T07:16:06.902Z,13.90
2019-02-26T07:18:37.414Z,15.43
2019-02-26T07:21:07.745Z,13.63
2019-02-26T07:23:39.910Z,15.13
2019-02-26T07:26:11.698Z,15.03
2019-02-26T07:28:44.005Z,13.97
2019-02-26T07:31:13.902Z,15.77
2019-02-26T07:33:44.138Z,16.47
2019-02-26T07:36:16.071Z,15.60
2019-02-26T07:38:48.540Z,14.57
2019-02-26T07:41:20.638Z,14.60
2019-02-26T07:43:52.075Z,16.37
2019-02-26T07:46:22.409Z,14.73
2019-02-26T07:48:54.053Z,14.90
2019-02-26T07:51:24.620Z,16.03
2019-02-26T07:53:56.488Z,15.20
2019-02-26T07:56:29.594Z,15.50
2019-02-26T07:59:03.774Z,16.90
2019-02-26T08:01:33.014Z,16.47
2019-02-26T08:04:03.245Z,16.90
2019-02-26T08:06:34.417Z,16.07
2019-02-26T08:09:11.554Z,15.73
2019-02-26T08:11:41.243Z,15.37
2019-02-26T08:14:13.762Z,15.83
2019-02-26T08:16:43.994Z,15.20
2019-02-26T08:19:14.816Z,15.93
2019-02-26T08:21:45.489Z,16.83
2019-02-26T08:24:19.412Z,15.47
2019-02-26T08:26:50.213Z,15.37
2019-02-26T08:29:23.967Z,16.83
2019-02-26T08:32:02.035Z,16.27
2019-02-26T08:34:34.051Z,16.63
2019-02-26T08:37:04.539Z,17.20
2019-02-26T08:39:35.664Z,17.27
2019-02-26T08:42:08.606Z,16.80
2019-02-26T08:44:38.973Z,14.63
2019-02-26T08:47:11.434Z,15.87
2019-02-26T08:49:50.774Z,16.47
2019-02-26T08:52:30.442Z,16.20
2019-02-26T08:55:16.196Z,14.67
2019-02-26T08:57:56.612Z,14.90
2019-02-26T09:00:37.379Z,14.83
2019-02-26T09:03:21.003Z,15.70
2019-02-26T09:06:12.888Z,14.80
2019-02-26T09:08:52.857Z,14.50
2019-02-26T09:11:33.962Z,14.07
2019-02-26T09:14:34.462Z,15.57
2019-02-26T09:17:08.355Z,14.47
2019-02-26T09:19:40.267Z,14.73
2019-02-26T09:22:14.031Z,13.77
2019-02-26T09:24:42.816Z,15.20
2019-02-26T09:27:13.844Z,15.03
2019-02-26T09:29:49.054Z,13.63
2019-02-26T09:32:18.222Z,14.97
2019-02-26T09:34:48.242Z,14.40
2019-02-26T09:37:18.482Z,16.10
2019-02-26T09:39:48.763Z,13.27
2019-02-26T09:42:20.986Z,13.80
2019-02-26T09:44:52.964Z,14.03
2019-02-26T09:47:33.873Z,12.77
2019-02-26T09:50:04.219Z,13.93
2019-02-26T09:52:34.478Z,13.63
2019-02-26T09:55:05.026Z,14.07
2019-02-26T09:57:36.945Z,13.97
2019-02-26T10:00:11.032Z,13.17
2019-02-26T10:02:42.496Z,11.97
2019-02-26T10:05:17.775Z,12.53
2019-02-26T10:07:59.325Z,13.43
2019-02-26T10:10:39.823Z,12.37
2019-02-26T10:13:22.524Z,12.93
2019-02-26T10:16:04.506Z,11.87
2019-02-26T10:18:41.969Z,11.67
2019-02-26T10:21:20.581Z,11.60
2019-02-26T10:24:02.087Z,11.43
2019-02-26T10:26:41.476Z,13.20
2019-02-26T10:29:12.899Z,12.40
2019-02-26T10:31:43.139Z,10.90
2019-02-26T10:34:15.621Z,11.53
2019-02-26T10:36:51.300Z,12.20
2019-02-26T10:39:28.184Z,11.13
2019-02-26T10:42:01.910Z,10.97
2019-02-26T10:44:31.467Z,11.37
2019-02-26T10:47:05.739Z,11.23
2019-02-26T10:49:37.328Z,10.53
2019-02-26T10:52:10.834Z,10.87
2019-02-26T10:54:46.479Z,10.73
2019-02-26T10:57:17.277Z,10.83
2019-02-26T10:59:49.869Z,10.17
2019-02-26T11:02:22.631Z,10.60
2019-02-26T11:04:55.009Z,10.87
2019-02-26T11:07:34.605Z,10.77
2019-02-26T11:10:19.587Z,11.97
2019-02-26T11:13:00.122Z,10.97
2019-02-26T11:15:36.070Z,11.07
2019-02-26T11:18:18.173Z,10.60
2019-02-26T11:20:58.998Z,12.10
2019-02-26T11:23:34.559Z,11.20
2019-02-26T11:26:10.729Z,11.43
2019-02-26T11:29:02.806Z,12.07
2019-02-26T11:31:44.546Z,10.93
2019-02-26T11:34:25.481Z,10.00
2019-02-26T11:37:08.903Z,10.47
2019-02-26T11:39:52.718Z,10.53
2019-02-26T11:42:32.525Z,10.43
2019-02-26T11:45:14.329Z,12.20
2019-02-26T11:47:57.653Z,11.63
2019-02-26T11:50:38.474Z,11.33
2019-02-26T11:53:18.352Z,10.33
2019-02-26T11:55:56.777Z,11.17
2019-02-26T11:58:27.789Z,11.10
2019-02-26T12:00:59.700Z,9.93
2019-02-26T12:03:33.145Z,10.70
2019-02-26T12:06:02.223Z,10.50
2019-02-26T12:08:32.450Z,11.17
2019-02-26T12:11:04.155Z,11.03
2019-02-26T12:13:34.859Z,12.00
2019-02-26T12:16:12.381Z,12.03
2019-02-26T12:18:52.866Z,11.43
2019-02-26T12:21:34.664Z,12.13
2019-02-26T12:24:13.324Z,11.37
2019-02-26T12:26:45.287Z,11.40
2019-02-26T12:29:18.415Z,12.00
2019-02-26T12:31:50.257Z,11.67
2019-02-26T12:34:30.080Z,12.23
2019-02-26T12:37:02.663Z,10.73
2019-02-26T12:39:33.368Z,11.07
2019-02-26T12:42:03.731Z,8.43
2019-02-26T12:44:35.535Z,7.50
2019-02-26T12:47:06.472Z,9.00
2019-02-26T12:49:39.177Z,8.27
2019-02-26T12:52:08.720Z,7.97
2019-02-26T12:54:40.847Z,8.03
2019-02-26T12:57:10.930Z,8.40
2019-02-26T12:59:41.111Z,7.77
2019-02-26T13:02:13.963Z,8.27
2019-02-26T13:04:44.528Z,8.83
2019-02-26T13:07:15.328Z,8.13
2019-02-26T13:09:47.923Z,8.00
2019-02-26T13:12:23.277Z,7.37
2019-02-26T13:14:54.699Z,8.13
2019-02-26T13:17:26.129Z,8.10
2019-02-26T13:19:58.991Z,8.53
2019-02-26T13:22:28.386Z,8.47
2019-02-26T13:25:00.279Z,8.80
2019-02-26T13:27:30.572Z,8.63
2019-02-26T13:30:00.837Z,9.57
2019-02-26T13:32:32.397Z,10.23
2019-02-26T13:35:07.302Z,9.30
2019-02-26T13:37:40.699Z,10.23
2019-02-26T13:40:10.799Z,10.67
2019-02-26T13:42:41.305Z,10.17
2019-02-26T13:45:13.583Z,9.73
2019-02-26T13:47:43.764Z,10.40
2019-02-26T13:50:17.507Z,8.97
2019-02-26T13:52:47.971Z,9.67
2019-02-26T13:55:18.217Z,9.70
2019-02-26T13:57:48.425Z,10.77
2019-02-26T14:00:25.950Z,11.20
2019-02-26T14:02:50.923Z,11.00
2019-02-26T14:05:21.145Z,10.63
2019-02-26T14:07:51.423Z,11.43
2019-02-26T14:10:21.813Z,11.13
2019-02-26T14:12:52.164Z,10.47
2019-02-26T14:15:23.791Z,12.53
2019-02-26T14:17:54.304Z,11.87
2019-02-26T14:20:24.631Z,13.77
2019-02-26T14:23:04.804Z,11.67
2019-02-26T14:25:45.156Z,11.23
2019-02-26T14:28:25.056Z,11.30
2019-02-26T14:31:08.567Z,11.90
2019-02-26T14:33:48.642Z,13.07
2019-02-26T14:36:20.096Z,11.87
2019-02-26T14:38:50.374Z,12.70
2019-02-26T14:41:20.563Z,11.73
2019-02-26T14:43:50.807Z,12.03
2019-02-26T14:46:21.329Z,12.27
2019-02-26T14:48:52.083Z,13.47
2019-02-26T14:51:22.307Z,11.93
2019-02-26T14:53:52.715Z,12.50
2019-02-26T14:56:25.019Z,12.10
2019-02-26T14:58:55.317Z,11.67
2019-02-26T15:01:25.739Z,11.87
2019-02-26T15:03:56.434Z,12.30
2019-02-26T15:06:26.685Z,11.77
2019-02-26T15:08:56.953Z,11.87
2019-02-26T15:11:27.245Z,11.93
2019-02-26T15:13:57.531Z,11.97
2019-02-26T15:16:40.913Z,11.93
2019-02-26T15:19:19.752Z,11.20
2019-02-26T15:21:58.961Z,11.93
2019-02-26T15:24:40.067Z,11.13
2019-02-26T15:27:11.657Z,11.33
2019-02-26T15:29:41.977Z,12.93
2019-02-26T15:32:12.290Z,12.00
2019-02-26T15:34:42.506Z,12.30
2019-02-26T15:37:12.838Z,12.20
2019-02-26T15:39:43.064Z,13.63
2019-02-26T15:42:13.446Z,12.57
2019-02-26T15:44:44.580Z,12.17
2019-02-26T15:47:22.416Z,12.20
2019-02-26T15:50:01.867Z,12.27
2019-02-26T15:52:43.398Z,12.63
2019-02-26T15:55:28.126Z,11.97
2019-02-26T15:58:06.656Z,10.80
2019-02-26T16:00:44.910Z,11.20
2019-02-26T16:03:23.148Z,13.07
2019-02-26T16:06:02.284Z,12.33
2019-02-26T16:08:43.410Z,11.67
2019-02-26T16:11:22.721Z,10.50
2019-02-26T16:14:00.008Z,12.53
2019-02-26T16:16:40.139Z,13.57
2019-02-26T16:19:11.235Z,12.97
2019-02-26T16:21:41.532Z,13.13
2019-02-26T16:24:11.796Z,12.07
2019-02-26T16:26:42.082Z,11.50
2019-02-26T16:29:12.352Z,12.60
2019-02-26T16:31:42.569Z,12.77
2019-02-26T16:34:12.917Z,12.53
2019-02-26T16:36:43.141Z,12.20
2019-02-26T16:39:13.509Z,13.00
2019-02-26T16:41:43.731Z,11.87
2019-02-26T16:44:14.258Z,13.47
2019-02-26T16:46:44.553Z,12.50
2019-02-26T16:49:14.837Z,11.33
2019-02-26T16:51:45.116Z,11.87
2019-02-26T16:54:15.429Z,13.43
2019-02-26T16:56:45.624Z,14.30
2019-02-26T16:59:15.841Z,12.90
2019-02-26T17:01:46.126Z,12.37
2019-02-26T17:04:16.369Z,12.47
2019-02-26T17:06:46.686Z,12.40
2019-02-26T17:09:20.734Z,11.47
2019-02-26T17:11:48.870Z,12.27
2019-02-26T17:14:19.129Z,13.00
2019-02-26T17:16:49.635Z,12.20
2019-02-26T17:19:20.196Z,12.77
2019-02-26T17:21:50.387Z,13.70
2019-02-26T17:24:21.358Z,12.07
2019-02-26T17:26:51.747Z,13.10
2019-02-26T17:29:22.032Z,12.97
2019-02-26T17:31:52.253Z,13.23
2019-02-26T17:34:23.494Z,13.63
2019-02-26T17:36:53.940Z,14.83
2019-02-26T17:39:25.980Z,13.13
2019-02-26T17:41:56.208Z,12.33
2019-02-26T17:44:26.453Z,13.33
2019-02-26T17:46:56.655Z,13.37
2019-02-26T17:49:26.995Z,13.37
2019-02-26T17:51:57.409Z,12.23
2019-02-26T17:54:27.673Z,13.03
2019-02-26T17:57:00.365Z,14.13
2019-02-26T17:59:29.791Z,17.67
2019-02-26T18:02:00.086Z,22.43
2019-02-26T18:04:30.284Z,20.73
2019-02-26T18:07:00.965Z,21.13
2019-02-26T18:09:34.407Z,18.10
2019-02-26T18:12:03.173Z,19.87
2019-02-26T18:14:33.372Z,18.60
2019-02-26T18:17:04.054Z,19.23
2019-02-26T18:19:34.276Z,20.77
2019-02-26T18:22:04.546Z,19.13
2019-02-26T18:24:34.696Z,19.00
2019-02-26T18:27:04.991Z,16.87
2019-02-26T18:29:35.244Z,17.27
2019-02-26T18:32:05.580Z,15.87
2019-02-26T18:34:35.878Z,16.27
2019-02-26T18:37:06.081Z,14.77
2019-02-26T18:39:36.268Z,15.63
2019-02-26T18:42:08.280Z,16.13
2019-02-26T18:44:38.717Z,16.27
2019-02-26T18:47:16.970Z,16.10
2019-02-26T18:49:47.263Z,17.23
2019-02-26T18:52:17.462Z,15.77
2019-02-26T18:54:49.291Z,16.93
2019-02-26T18:57:19.743Z,15.57
2019-02-26T18:59:53.422Z,15.87
2019-02-26T19:02:30.181Z,14.97
2019-02-26T19:05:00.482Z,16.47
2019-02-26T19:07:52.183Z,16.23
2019-02-26T19:10:22.466Z,20.57
2019-02-26T19:12:52.659Z,30.93
2019-02-26T19:15:23.979Z,27.40
2019-02-26T19:17:56.799Z,22.23
2019-02-26T19:20:28.107Z,21.27
2019-02-26T19:22:58.944Z,22.27
2019-02-26T19:25:29.746Z,19.30
2019-02-26T19:28:00.259Z,21.93
2019-02-26T19:30:30.496Z,23.20
2019-02-26T19:33:00.745Z,19.67
2019-02-26T19:35:34.801Z,18.60
2019-02-26T19:38:03.218Z,16.53
2019-02-26T19:40:38.685Z,18.87
2019-02-26T19:43:08.269Z,17.73
2019-02-26T19:45:38.535Z,17.03
2019-02-26T19:48:08.817Z,15.97
2019-02-26T19:50:39.049Z,15.57
2019-02-26T19:53:10.712Z,17.37
2019-02-26T19:55:42.036Z,17.10
2019-02-26T19:58:12.426Z,16.90
2019-02-26T20:00:42.761Z,18.17
2019-02-26T20:03:13.015Z,17.30
2019-02-26T20:05:46.285Z,19.53
2019-02-26T20:08:16.111Z,19.30
2019-02-26T20:10:48.719Z,18.60
2019-02-26T20:13:18.300Z,18.17
2019-02-26T20:15:48.493Z,17.77
2019-02-26T20:18:20.955Z,17.73
2019-02-26T20:20:50.885Z,17.10
2019-02-26T20:23:21.163Z,16.70
2019-02-26T20:25:51.358Z,17.27
2019-02-26T20:28:21.620Z,15.97
2019-02-26T20:30:51.878Z,16.20
2019-02-26T20:33:22.932Z,15.90
2019-02-26T20:35:54.157Z,16.10
2019-02-26T20:38:24.400Z,16.20
2019-02-26T20:40:54.723Z,14.50
2019-02-26T20:43:25.027Z,16.00
2019-02-26T20:45:55.231Z,16.67
2019-02-26T20:48:25.465Z,17.30
2019-02-26T20:50:56.536Z,17.90
2019-02-26T20:53:26.915Z,17.83
2019-02-26T20:55:57.686Z,17.03
2019-02-26T20:58:29.330Z,18.03
2019-02-26T21:00:59.563Z,18.43
2019-02-26T21:03:29.901Z,20.77
2019-02-26T21:06:00.101Z,20.80
2019-02-26T21:08:31.095Z,17.07
2019-02-26T21:11:01.778Z,17.13
2019-02-26T21:13:34.618Z,17.73
2019-02-26T21:16:04.053Z,18.00
2019-02-26T21:18:34.657Z,16.80
2019-02-26T21:21:04.880Z,17.30
2019-02-26T21:23:35.158Z,15.33
2019-02-26T21:26:05.655Z,17.73
2019-02-26T21:28:35.891Z,17.23
2019-02-26T21:31:06.084Z,17.10
2019-02-26T21:33:36.303Z,17.67
2019-02-26T21:36:06.566Z,15.83
2019-02-26T21:38:38.812Z,17.40
2019-02-26T21:41:09.039Z,17.33
2019-02-26T21:43:39.489Z,16.80
2019-02-26T21:46:09.684Z,17.67
2019-02-26T21:48:39.997Z,17.20
2019-02-26T21:51:10.202Z,16.10
2019-02-26T21:53:40.460Z,17.07
2019-02-26T21:56:10.857Z,16.63
2019-02-26T21:58:41.190Z,16.17
2019-02-26T22:01:12.160Z,17.23
2019-02-26T22:03:42.422Z,16.33
2019-02-26T22:06:12.635Z,17.27
2019-02-26T22:08:42.851Z,17.60
2019-02-26T22:11:13.119Z,17.57
2019-02-26T22:13:43.350Z,17.30
2019-02-26T22:16:14.914Z,17.50
2019-02-26T22:18:46.274Z,17.93
2019-02-26T22:21:18.725Z,17.87
2019-02-26T22:23:48.451Z,16.93
2019-02-26T22:26:18.641Z,17.13
2019-02-26T22:28:49.809Z,18.57
2019-02-26T22:31:20.079Z,17.77
2019-02-26T22:33:50.395Z,17.90
2019-02-26T22:36:20.624Z,18.27
2019-02-26T22:38:50.879Z,17.10
2019-02-26T22:41:21.065Z,15.97
2019-02-26T22:43:51.244Z,17.07
2019-02-26T22:46:21.459Z,16.50
2019-02-26T22:48:51.699Z,16.60
2019-02-26T22:51:21.944Z,16.73
2019-02-26T22:53:52.186Z,18.03
2019-02-26T22:56:24.594Z,16.77
2019-02-26T22:58:54.441Z,16.10
2019-02-26T23:01:30.975Z,15.43
2019-02-26T23:04:02.820Z,15.97
2019-02-26T23:06:33.036Z,17.47
2019-02-26T23:09:03.653Z,16.97
2019-02-26T23:11:35.769Z,17.47
2019-02-26T23:14:06.340Z,16.50
2019-02-26T23:16:37.020Z,18.10
2019-02-26T23:19:08.600Z,17.27
2019-02-26T23:21:39.159Z,16.93
2019-02-26T23:24:09.629Z,39.07
2019-02-26T23:26:42.484Z,24.37
2019-02-26T23:29:12.207Z,18.23
2019-02-26T23:31:42.718Z,18.53
2019-02-26T23:34:12.937Z,18.60
2019-02-26T23:36:43.277Z,32.13
2019-02-26T23:39:15.485Z,29.20
2019-02-26T23:41:47.553Z,19.10
2019-02-26T23:44:18.677Z,16.47
2019-02-26T23:46:48.864Z,18.40
2019-02-26T23:49:19.054Z,17.27
2019-02-26T23:51:50.975Z,19.57
2019-02-26T23:54:21.155Z,18.77
2019-02-26T23:56:52.033Z,17.37
2019-02-26T23:59:22.787Z,17.60
